createdAt,value
2018-07-22T00:02:24.461Z,66.77
2018-07-22T00:04:50.774Z,67.12
2018-07-22T00:07:17.084Z,67.33
2018-07-22T00:09:43.398Z,67.92
2018-07-22T00:12:09.719Z,69.21
2018-07-22T00:14:36.070Z,68.78
2018-07-22T00:17:02.388Z,69.11
2018-07-22T00:19:28.701Z,69.43
2018-07-22T00:21:55.027Z,69.26
2018-07-22T00:24:21.337Z,68.17
2018-07-22T00:26:47.648Z,68.36
2018-07-22T00:29:14.004Z,68.71
2018-07-22T00:31:40.283Z,69.92
2018-07-22T00:34:06.607Z,71.76
2018-07-22T00:36:32.918Z,72.55
2018-07-22T00:38:59.269Z,72.44
2018-07-22T00:41:25.575Z,72.49
2018-07-22T00:43:51.923Z,72.88
2018-07-22T00:46:18.237Z,73.25
2018-07-22T00:48:44.554Z,73.78
2018-07-22T00:51:10.905Z,74.12
2018-07-22T00:53:37.220Z,75.26
2018-07-22T00:56:03.584Z,75.26
2018-07-22T00:58:29.895Z,75.48
2018-07-22T01:00:56.209Z,75.60
2018-07-22T01:03:22.564Z,75.20
2018-07-22T01:05:48.878Z,75.04
2018-07-22T01:08:15.194Z,75.83
2018-07-22T01:10:41.514Z,75.21
2018-07-22T01:13:07.826Z,75.64
2018-07-22T01:15:34.233Z,76.73
2018-07-22T01:18:00.557Z,76.82
2018-07-22T01:20:26.863Z,76.18
2018-07-22T01:22:53.177Z,76.55
2018-07-22T01:25:19.561Z,77.19
2018-07-22T01:27:45.913Z,76.96
2018-07-22T01:30:12.275Z,77.17
2018-07-22T01:32:38.600Z,77.03
2018-07-22T01:35:04.926Z,77.07
2018-07-22T01:37:31.233Z,77.62
2018-07-22T01:39:57.546Z,77.77
2018-07-22T01:42:23.859Z,77.96
2018-07-22T01:44:50.171Z,77.73
2018-07-22T01:47:16.492Z,77.48
2018-07-22T01:49:42.811Z,77.71
2018-07-22T01:52:09.136Z,77.77
2018-07-22T01:54:35.445Z,78.71
2018-07-22T01:57:01.797Z,79.78
2018-07-22T01:59:28.098Z,80.51
2018-07-22T02:01:54.414Z,80.75
2018-07-22T02:04:20.740Z,81.04
2018-07-22T02:06:47.068Z,81.19
2018-07-22T02:09:13.369Z,81.47
2018-07-22T02:11:39.688Z,81.67
2018-07-22T02:14:05.995Z,82.19
2018-07-22T02:16:32.317Z,81.78
2018-07-22T02:18:58.628Z,81.57
2018-07-22T02:21:24.940Z,82.34
2018-07-22T02:23:51.287Z,82.81
2018-07-22T02:26:17.604Z,82.04
2018-07-22T02:28:43.920Z,82.19
2018-07-22T02:31:10.235Z,82.44
2018-07-22T02:33:36.546Z,82.47
2018-07-22T02:36:02.865Z,82.53
2018-07-22T02:38:29.176Z,82.28
2018-07-22T02:40:55.490Z,82.37
2018-07-22T02:43:21.798Z,81.98
2018-07-22T02:45:48.114Z,81.64
2018-07-22T02:48:14.425Z,81.06
2018-07-22T02:50:40.742Z,81.17
2018-07-22T02:53:07.051Z,81.00
2018-07-22T02:55:33.354Z,80.99
2018-07-22T02:57:59.663Z,80.49
2018-07-22T03:00:25.981Z,81.00
2018-07-22T03:02:52.287Z,81.08
2018-07-22T03:05:18.596Z,81.71
2018-07-22T03:07:44.950Z,81.71
2018-07-22T03:10:11.266Z,81.35
2018-07-22T03:12:37.585Z,81.50
2018-07-22T03:15:03.900Z,81.04
2018-07-22T03:17:30.250Z,81.25
2018-07-22T03:19:56.560Z,81.34
2018-07-22T03:22:22.871Z,81.12
2018-07-22T03:24:49.184Z,80.77
2018-07-22T03:27:15.498Z,80.41
2018-07-22T03:29:41.844Z,81.16
2018-07-22T03:32:08.159Z,81.07
2018-07-22T03:34:34.469Z,81.33
2018-07-22T03:37:00.779Z,81.51
2018-07-22T03:39:27.132Z,81.13
2018-07-22T03:41:53.448Z,80.88
2018-07-22T03:44:19.803Z,80.78
2018-07-22T03:46:46.076Z,80.83
2018-07-22T03:49:12.384Z,80.98
2018-07-22T03:51:38.699Z,81.10
2018-07-22T03:54:05.008Z,80.90
2018-07-22T03:56:31.316Z,80.69
2018-07-22T03:58:57.625Z,80.77
2018-07-22T04:01:23.930Z,80.77
2018-07-22T04:03:50.239Z,80.77
2018-07-22T04:06:16.557Z,81.11
2018-07-22T04:08:42.868Z,81.00
2018-07-22T04:11:09.183Z,79.97
2018-07-22T04:13:35.494Z,79.83
2018-07-22T04:16:01.814Z,79.46
2018-07-22T04:18:28.131Z,79.27
2018-07-22T04:20:54.484Z,79.30
2018-07-22T04:23:20.800Z,79.10
2018-07-22T04:25:47.119Z,78.29
2018-07-22T04:28:13.426Z,78.06
2018-07-22T04:30:39.755Z,77.73
2018-07-22T04:33:06.049Z,78.26
2018-07-22T04:35:32.365Z,78.61
2018-07-22T04:37:58.681Z,78.60
2018-07-22T04:40:24.983Z,78.05
2018-07-22T04:42:51.321Z,77.56
2018-07-22T04:45:17.642Z,75.63
2018-07-22T04:47:43.951Z,74.96
2018-07-22T04:50:10.260Z,74.60
2018-07-22T04:52:36.573Z,74.02
2018-07-22T04:55:02.885Z,73.07
2018-07-22T04:57:29.200Z,73.09
2018-07-22T04:59:55.509Z,71.79
2018-07-22T05:02:21.824Z,70.84
2018-07-22T05:04:48.140Z,70.68
2018-07-22T05:07:14.453Z,69.88
2018-07-22T05:09:40.764Z,68.95
2018-07-22T05:12:07.079Z,68.16
2018-07-22T05:14:33.393Z,68.01
2018-07-22T05:16:59.722Z,66.75
2018-07-22T05:19:26.039Z,66.02
2018-07-22T05:21:52.406Z,64.80
2018-07-22T05:24:18.769Z,64.54
2018-07-22T05:26:45.074Z,64.46
2018-07-22T05:29:11.383Z,63.80
2018-07-22T05:31:37.712Z,60.09
2018-07-22T05:34:04.021Z,58.18
2018-07-22T05:36:30.337Z,55.42
2018-07-22T05:38:56.649Z,55.02
2018-07-22T05:41:22.959Z,55.02
2018-07-22T05:43:49.272Z,55.09
2018-07-22T05:46:15.586Z,54.62
2018-07-22T05:48:41.906Z,53.17
2018-07-22T05:51:08.220Z,52.00
2018-07-22T05:53:34.532Z,51.61
2018-07-22T05:56:00.852Z,50.62
2018-07-22T05:58:27.162Z,50.51
2018-07-22T06:00:53.474Z,51.10
2018-07-22T06:03:19.790Z,51.49
2018-07-22T06:05:46.106Z,50.44
2018-07-22T06:08:12.418Z,53.25
2018-07-22T06:10:38.733Z,51.45
2018-07-22T06:13:05.059Z,51.30
2018-07-22T06:15:31.377Z,52.28
2018-07-22T06:17:57.687Z,52.76
2018-07-22T06:20:24.006Z,51.50
2018-07-22T06:22:50.317Z,51.02
2018-07-22T06:25:16.631Z,49.33
2018-07-22T06:27:42.981Z,49.97
2018-07-22T06:30:09.341Z,54.73
2018-07-22T06:32:35.691Z,58.14
2018-07-22T06:35:01.965Z,61.37
2018-07-22T06:37:28.275Z,61.91
2018-07-22T06:39:54.640Z,61.94
2018-07-22T06:42:20.952Z,60.32
2018-07-22T06:44:47.274Z,60.30
2018-07-22T06:47:13.586Z,58.30
2018-07-22T06:49:39.940Z,58.18
2018-07-22T06:52:06.247Z,56.19
2018-07-22T06:54:32.567Z,55.85
2018-07-22T06:56:58.886Z,52.93
2018-07-22T06:59:25.235Z,50.44
2018-07-22T07:01:51.517Z,49.33
2018-07-22T07:04:17.828Z,48.76
2018-07-22T07:06:44.157Z,48.50
2018-07-22T07:09:10.472Z,48.15
2018-07-22T07:11:36.823Z,48.46
2018-07-22T07:14:03.143Z,45.85
2018-07-22T07:16:29.458Z,45.58
2018-07-22T07:18:55.806Z,45.00
2018-07-22T07:21:22.121Z,43.83
2018-07-22T07:23:48.434Z,43.57
2018-07-22T07:26:14.758Z,43.95
2018-07-22T07:28:41.072Z,42.70
2018-07-22T07:31:07.389Z,43.09
2018-07-22T07:33:33.786Z,43.53
2018-07-22T07:36:00.057Z,43.54
2018-07-22T07:38:26.367Z,43.59
2018-07-22T07:40:52.733Z,43.12
2018-07-22T07:43:19.047Z,43.05
2018-07-22T07:45:45.365Z,41.66
2018-07-22T07:48:11.685Z,41.36
2018-07-22T07:50:37.998Z,42.90
2018-07-22T07:53:04.307Z,43.55
2018-07-22T07:55:30.620Z,44.52
2018-07-22T07:57:56.934Z,42.45
2018-07-22T08:00:23.271Z,41.09
2018-07-22T08:02:49.583Z,41.81
2018-07-22T08:05:15.896Z,41.50
2018-07-22T08:07:42.215Z,40.76
2018-07-22T08:10:08.528Z,40.47
2018-07-22T08:12:34.848Z,38.94
2018-07-22T08:15:01.156Z,39.01
2018-07-22T08:17:27.508Z,39.17
2018-07-22T08:19:53.821Z,38.48
2018-07-22T08:22:20.131Z,38.95
2018-07-22T08:24:46.445Z,39.53
2018-07-22T08:27:12.758Z,38.74
2018-07-22T08:29:39.066Z,37.44
2018-07-22T08:32:05.386Z,35.60
2018-07-22T08:34:31.711Z,37.01
2018-07-22T08:36:58.029Z,35.73
2018-07-22T08:39:24.375Z,35.83
2018-07-22T08:41:50.687Z,36.79
2018-07-22T08:44:16.995Z,36.20
2018-07-22T08:46:43.309Z,36.45
2018-07-22T08:49:09.624Z,37.22
2018-07-22T08:51:35.993Z,37.41
2018-07-22T08:54:02.310Z,37.06
2018-07-22T08:56:28.621Z,37.11
2018-07-22T08:58:54.953Z,37.09
2018-07-22T09:01:21.274Z,36.81
2018-07-22T09:03:47.591Z,37.38
2018-07-22T09:06:13.904Z,37.38
2018-07-22T09:08:40.215Z,37.75
2018-07-22T09:11:06.534Z,37.98
2018-07-22T09:13:32.843Z,37.00
2018-07-22T09:15:59.164Z,36.86
2018-07-22T09:18:25.489Z,37.34
2018-07-22T09:20:51.791Z,36.49
2018-07-22T09:23:18.139Z,35.96
2018-07-22T09:25:44.463Z,36.20
2018-07-22T09:28:10.782Z,35.33
2018-07-22T09:30:37.092Z,36.48
2018-07-22T09:33:03.406Z,35.50
2018-07-22T09:35:29.721Z,36.68
2018-07-22T09:37:56.029Z,37.32
2018-07-22T09:40:22.348Z,36.52
2018-07-22T09:42:48.658Z,35.44
2018-07-22T09:45:14.986Z,34.99
2018-07-22T09:47:41.301Z,35.79
2018-07-22T09:50:07.623Z,35.61
2018-07-22T09:52:33.932Z,35.67
2018-07-22T09:55:00.264Z,35.57
2018-07-22T09:57:26.578Z,36.16
2018-07-22T09:59:52.935Z,35.37
2018-07-22T10:02:19.265Z,35.24
2018-07-22T10:04:45.610Z,35.26
2018-07-22T10:07:11.886Z,35.58
2018-07-22T10:09:38.218Z,36.41
2018-07-22T10:12:04.539Z,35.01
2018-07-22T10:14:30.906Z,35.12
2018-07-22T10:16:57.223Z,34.69
2018-07-22T10:19:23.535Z,34.00
2018-07-22T10:21:49.886Z,35.06
2018-07-22T10:24:16.186Z,34.58
2018-07-22T10:26:42.510Z,34.67
2018-07-22T10:29:08.825Z,33.80
2018-07-22T10:31:35.146Z,32.90
2018-07-22T10:34:01.465Z,33.44
2018-07-22T10:36:27.769Z,33.35
2018-07-22T10:38:54.080Z,33.43
2018-07-22T10:41:20.431Z,33.28
2018-07-22T10:43:46.741Z,35.02
2018-07-22T10:46:13.051Z,34.29
2018-07-22T10:48:39.368Z,33.56
2018-07-22T10:51:05.755Z,33.18
2018-07-22T10:53:32.003Z,33.81
2018-07-22T10:55:58.311Z,34.22
2018-07-22T10:58:24.629Z,33.84
2018-07-22T11:00:50.947Z,33.49
2018-07-22T11:03:17.270Z,32.44
2018-07-22T11:05:43.607Z,33.28
2018-07-22T11:08:09.915Z,32.82
2018-07-22T11:10:36.234Z,32.66
2018-07-22T11:13:02.545Z,32.23
2018-07-22T11:15:28.916Z,31.90
2018-07-22T11:17:55.221Z,32.99
2018-07-22T11:20:21.532Z,33.27
2018-07-22T11:22:47.845Z,33.24
2018-07-22T11:25:14.158Z,34.20
2018-07-22T11:27:40.475Z,35.85
2018-07-22T11:30:06.777Z,36.31
2018-07-22T11:32:33.094Z,35.63
2018-07-22T11:34:59.399Z,34.33
2018-07-22T11:37:25.715Z,33.74
2018-07-22T11:39:52.033Z,33.59
2018-07-22T11:42:18.345Z,32.11
2018-07-22T11:44:44.661Z,33.68
2018-07-22T11:47:10.977Z,33.11
2018-07-22T11:49:37.292Z,31.64
2018-07-22T11:52:03.608Z,31.51
2018-07-22T11:54:29.974Z,31.07
2018-07-22T11:56:56.249Z,32.00
2018-07-22T11:59:22.600Z,32.35
2018-07-22T12:01:48.907Z,32.11
2018-07-22T12:04:15.225Z,31.93
2018-07-22T12:06:41.536Z,31.65
2018-07-22T12:09:07.898Z,32.93
2018-07-22T12:11:34.212Z,33.85
2018-07-22T12:14:00.529Z,34.11
2018-07-22T12:16:26.888Z,33.96
2018-07-22T12:18:53.251Z,34.91
2018-07-22T12:21:19.615Z,34.96
2018-07-22T12:23:45.867Z,35.51
2018-07-22T12:26:12.188Z,35.67
2018-07-22T12:28:38.495Z,36.58
2018-07-22T12:31:04.810Z,37.08
2018-07-22T12:33:31.124Z,36.98
2018-07-22T12:35:57.431Z,37.14
2018-07-22T12:38:23.740Z,38.26
2018-07-22T12:40:50.047Z,38.13
2018-07-22T12:43:16.356Z,37.89
2018-07-22T12:45:42.675Z,38.66
2018-07-22T12:48:08.984Z,38.54
2018-07-22T12:50:35.292Z,38.50
2018-07-22T12:53:01.603Z,37.56
2018-07-22T12:55:27.911Z,37.78
2018-07-22T12:57:54.225Z,38.24
2018-07-22T13:00:20.567Z,38.18
2018-07-22T13:02:46.875Z,39.02
2018-07-22T13:05:13.182Z,37.77
2018-07-22T13:07:39.494Z,37.84
2018-07-22T13:10:05.800Z,38.10
2018-07-22T13:12:32.111Z,38.98
2018-07-22T13:14:58.419Z,53.54
2018-07-22T13:17:24.728Z,61.26
2018-07-22T13:19:51.040Z,62.31
2018-07-22T13:22:17.357Z,73.56
2018-07-22T13:24:43.666Z,73.73
2018-07-22T13:27:09.998Z,71.35
2018-07-22T13:29:36.300Z,66.78
2018-07-22T13:32:02.611Z,73.56
2018-07-22T13:34:28.969Z,73.41
2018-07-22T13:36:55.300Z,72.20
2018-07-22T13:39:21.654Z,74.31
2018-07-22T13:41:48.028Z,73.99
2018-07-22T13:44:14.339Z,76.34
2018-07-22T13:46:40.693Z,75.50
2018-07-22T13:49:07.004Z,71.51
2018-07-22T13:51:33.312Z,70.88
2018-07-22T13:53:59.630Z,67.69
2018-07-22T13:56:25.939Z,70.60
2018-07-22T13:58:52.256Z,73.66
2018-07-22T14:01:18.573Z,71.47
2018-07-22T14:03:44.906Z,70.89
2018-07-22T14:06:11.215Z,69.26
2018-07-22T14:08:37.524Z,64.54
2018-07-22T14:11:03.889Z,64.52
2018-07-22T14:13:30.219Z,64.73
2018-07-22T14:15:56.587Z,63.30
2018-07-22T14:18:22.891Z,61.36
2018-07-22T14:20:49.212Z,60.32
2018-07-22T14:23:15.524Z,60.76
2018-07-22T14:25:41.835Z,58.58
2018-07-22T14:28:08.215Z,56.96
2018-07-22T14:30:34.460Z,56.44
2018-07-22T14:33:00.773Z,53.71
2018-07-22T14:35:27.088Z,53.20
2018-07-22T14:37:53.444Z,51.87
2018-07-22T14:40:19.757Z,50.32
2018-07-22T14:42:46.082Z,54.40
2018-07-22T14:45:12.392Z,55.27
2018-07-22T14:47:38.708Z,55.81
2018-07-22T14:50:05.026Z,56.79
2018-07-22T14:52:31.340Z,52.99
2018-07-22T14:54:57.652Z,54.07
2018-07-22T14:57:23.977Z,52.90
2018-07-22T14:59:50.304Z,50.91
2018-07-22T15:02:16.616Z,48.15
2018-07-22T15:04:42.931Z,46.77
2018-07-22T15:07:09.244Z,47.20
2018-07-22T15:09:35.561Z,46.62
2018-07-22T15:12:01.877Z,47.00
2018-07-22T15:14:28.197Z,47.42
2018-07-22T15:16:54.524Z,47.37
2018-07-22T15:19:20.844Z,47.87
2018-07-22T15:21:47.152Z,47.22
2018-07-22T15:24:13.468Z,46.54
2018-07-22T15:26:39.783Z,47.41
2018-07-22T15:29:06.131Z,46.46
2018-07-22T15:31:32.429Z,46.33
2018-07-22T15:33:58.752Z,45.36
2018-07-22T15:36:25.067Z,43.04
2018-07-22T15:38:51.382Z,44.13
2018-07-22T15:41:17.745Z,44.17
2018-07-22T15:43:44.051Z,44.75
2018-07-22T15:46:10.408Z,44.13
2018-07-22T15:48:36.724Z,44.89
2018-07-22T15:51:03.036Z,44.53
2018-07-22T15:53:29.403Z,45.05
2018-07-22T15:55:55.786Z,45.13
2018-07-22T15:58:22.042Z,45.14
2018-07-22T16:00:48.411Z,45.99
2018-07-22T16:03:14.720Z,44.83
2018-07-22T16:05:41.033Z,45.08
2018-07-22T16:08:07.351Z,46.15
2018-07-22T16:10:33.664Z,48.00
2018-07-22T16:12:59.971Z,48.79
2018-07-22T16:15:26.333Z,49.75
2018-07-22T16:17:52.743Z,50.63
2018-07-22T16:20:19.066Z,51.58
2018-07-22T16:22:45.422Z,51.82
2018-07-22T16:25:11.734Z,51.90
2018-07-22T16:27:38.047Z,51.85
2018-07-22T16:30:04.396Z,52.62
2018-07-22T16:32:30.705Z,56.69
2018-07-22T16:34:57.065Z,55.26
2018-07-22T16:37:23.384Z,55.19
2018-07-22T16:39:49.697Z,55.33
2018-07-22T16:42:16.052Z,54.85
2018-07-22T16:44:42.322Z,54.71
2018-07-22T16:47:08.628Z,55.10
2018-07-22T16:49:34.941Z,54.17
2018-07-22T16:52:01.288Z,53.68
2018-07-22T16:54:27.605Z,54.51
2018-07-22T16:56:53.919Z,55.44
2018-07-22T16:59:20.266Z,56.59
2018-07-22T17:01:46.578Z,56.56
2018-07-22T17:04:12.883Z,57.13
2018-07-22T17:06:39.201Z,57.52
2018-07-22T17:09:05.514Z,57.48
2018-07-22T17:11:31.826Z,57.50
2018-07-22T17:13:59.196Z,57.42
2018-07-22T17:16:25.511Z,57.82
2018-07-22T17:18:51.846Z,58.12
2018-07-22T17:21:18.152Z,58.68
2018-07-22T17:23:44.468Z,59.02
2018-07-22T17:26:10.784Z,59.33
2018-07-22T17:28:37.097Z,59.76
2018-07-22T17:31:03.447Z,59.81
2018-07-22T17:33:29.739Z,60.16
2018-07-22T17:35:56.055Z,60.52
2018-07-22T17:38:22.364Z,60.91
2018-07-22T17:40:48.720Z,61.08
2018-07-22T17:43:15.039Z,61.38
2018-07-22T17:45:41.356Z,62.03
2018-07-22T17:48:07.705Z,62.94
2018-07-22T17:50:34.056Z,63.19
2018-07-22T17:53:00.405Z,63.36
2018-07-22T17:55:26.716Z,63.56
2018-07-22T17:57:53.034Z,63.34
2018-07-22T18:00:19.342Z,63.63
2018-07-22T18:02:45.664Z,63.64
2018-07-22T18:05:12.029Z,63.84
2018-07-22T18:07:38.341Z,64.01
2018-07-22T18:10:04.663Z,64.40
2018-07-22T18:12:30.979Z,64.69
2018-07-22T18:14:57.301Z,64.48
2018-07-22T18:17:23.652Z,64.60
2018-07-22T18:19:50.088Z,64.69
2018-07-22T18:22:16.275Z,65.01
2018-07-22T18:24:42.595Z,65.22
2018-07-22T18:27:08.904Z,65.11
2018-07-22T18:29:35.215Z,65.25
2018-07-22T18:32:01.555Z,65.43
2018-07-22T18:34:27.841Z,65.67
2018-07-22T18:36:54.165Z,65.88
2018-07-22T18:39:20.518Z,66.09
2018-07-22T18:41:46.791Z,66.40
2018-07-22T18:44:13.171Z,66.35
2018-07-22T18:46:39.512Z,66.30
2018-07-22T18:49:05.832Z,66.66
2018-07-22T18:51:32.149Z,67.04
2018-07-22T18:53:58.464Z,67.25
2018-07-22T18:56:24.817Z,67.63
2018-07-22T18:58:51.178Z,68.09
2018-07-22T19:01:17.488Z,68.40
2018-07-22T19:03:43.807Z,69.28
2018-07-22T19:06:10.117Z,70.04
2018-07-22T19:08:36.427Z,70.27
2018-07-22T19:11:02.746Z,70.58
2018-07-22T19:13:29.070Z,70.87
2018-07-22T19:15:55.383Z,70.52
2018-07-22T19:18:21.725Z,70.61
2018-07-22T19:20:48.043Z,71.34
2018-07-22T19:23:14.357Z,71.33
2018-07-22T19:25:40.671Z,71.93
2018-07-22T19:28:06.980Z,72.29
2018-07-22T19:30:33.339Z,72.80
2018-07-22T19:32:59.646Z,72.77
2018-07-22T19:35:26.004Z,73.12
2018-07-22T19:37:52.337Z,73.42
2018-07-22T19:40:18.725Z,73.57
2018-07-22T19:42:45.048Z,73.30
2018-07-22T19:45:11.356Z,73.29
2018-07-22T19:47:37.667Z,73.34
2018-07-22T19:50:03.980Z,73.75
2018-07-22T19:52:30.329Z,73.65
2018-07-22T19:54:56.670Z,73.82
2018-07-22T19:57:23.031Z,73.85
2018-07-22T19:59:49.385Z,73.74
2018-07-22T20:02:15.697Z,73.28
2018-07-22T20:04:42.006Z,72.35
2018-07-22T20:07:08.337Z,71.74
2018-07-22T20:09:34.691Z,72.32
2018-07-22T20:12:00.978Z,71.94
2018-07-22T20:14:27.345Z,72.34
2018-07-22T20:16:53.698Z,72.56
2018-07-22T20:19:20.062Z,72.16
2018-07-22T20:21:46.393Z,71.97
2018-07-22T20:24:12.750Z,71.55
2018-07-22T20:26:39.043Z,72.14
2018-07-22T20:29:05.371Z,72.23
2018-07-22T20:31:31.702Z,71.89
2018-07-22T20:33:58.039Z,71.38
2018-07-22T20:36:24.368Z,71.72
2018-07-22T20:38:50.670Z,71.62
2018-07-22T20:41:17.013Z,71.26
2018-07-22T20:43:43.324Z,70.97
2018-07-22T20:46:09.650Z,71.29
2018-07-22T20:48:35.959Z,70.96
2018-07-22T20:51:02.313Z,71.72
2018-07-22T20:53:28.593Z,72.51
2018-07-22T20:55:54.903Z,72.41
2018-07-22T20:58:21.226Z,72.34
2018-07-22T21:00:47.545Z,71.83
2018-07-22T21:03:13.875Z,71.67
2018-07-22T21:05:40.192Z,71.79
2018-07-22T21:08:06.539Z,72.25
2018-07-22T21:10:32.822Z,72.57
2018-07-22T21:12:59.146Z,73.03
2018-07-22T21:15:25.458Z,72.58
2018-07-22T21:17:51.777Z,72.56
2018-07-22T21:20:18.084Z,72.87
2018-07-22T21:22:44.426Z,72.42
2018-07-22T21:25:10.735Z,73.63
2018-07-22T21:27:37.049Z,73.76
2018-07-22T21:30:04.452Z,73.61
2018-07-22T21:32:30.747Z,73.42
2018-07-22T21:34:57.063Z,73.22
2018-07-22T21:37:23.376Z,73.04
2018-07-22T21:39:49.687Z,72.97
2018-07-22T21:42:16.006Z,73.12
2018-07-22T21:44:42.320Z,73.05
2018-07-22T21:47:08.661Z,72.77
2018-07-22T21:49:34.979Z,72.81
2018-07-22T21:52:01.296Z,72.56
2018-07-22T21:54:27.651Z,72.42
2018-07-22T21:56:54.005Z,72.72
2018-07-22T21:59:20.325Z,72.84
2018-07-22T22:01:46.640Z,72.93
2018-07-22T22:04:12.952Z,73.05
2018-07-22T22:06:39.270Z,73.03
2018-07-22T22:09:05.580Z,72.61
2018-07-22T22:11:31.902Z,72.63
2018-07-22T22:13:58.213Z,72.58
2018-07-22T22:16:24.525Z,72.72
2018-07-22T22:18:50.884Z,72.84
2018-07-22T22:21:17.198Z,72.97
2018-07-22T22:23:43.559Z,72.95
2018-07-22T22:26:09.865Z,72.98
2018-07-22T22:28:36.176Z,73.25
2018-07-22T22:31:02.524Z,73.62
2018-07-22T22:33:28.837Z,74.04
2018-07-22T22:35:55.147Z,74.12
2018-07-22T22:40:47.810Z,73.48
2018-07-22T22:43:14.115Z,73.95
2018-07-22T22:45:40.468Z,73.85
2018-07-22T22:48:06.776Z,73.56
2018-07-22T22:50:33.094Z,73.57
2018-07-22T22:52:59.407Z,73.50
2018-07-22T22:55:25.720Z,73.27
2018-07-22T22:57:52.082Z,73.22
2018-07-22T23:00:18.389Z,73.07
2018-07-22T23:02:44.702Z,73.11
2018-07-22T23:05:11.013Z,73.36
2018-07-22T23:07:37.326Z,73.25
2018-07-22T23:10:03.638Z,73.11
2018-07-22T23:12:29.956Z,73.12
2018-07-22T23:14:56.259Z,73.17
2018-07-22T23:17:22.567Z,72.99
2018-07-22T23:19:48.892Z,72.68
2018-07-22T23:22:15.211Z,72.83
2018-07-22T23:24:41.556Z,73.01
2018-07-22T23:27:07.868Z,72.81
2018-07-22T23:29:34.185Z,73.15
2018-07-22T23:32:00.496Z,72.95
2018-07-22T23:34:26.812Z,73.20
2018-07-22T23:36:53.199Z,73.42
2018-07-22T23:39:19.520Z,73.00
2018-07-22T23:41:45.837Z,73.25
2018-07-22T23:44:12.148Z,73.29
2018-07-22T23:46:38.456Z,72.94
2018-07-22T23:49:04.783Z,72.85
2018-07-22T23:51:31.093Z,72.81
2018-07-22T23:53:57.444Z,72.84
2018-07-22T23:56:23.806Z,72.66
2018-07-22T23:58:50.151Z,72.67
